createdAt,value
2022-08-14T00:01:12.329Z,11.77
2022-08-14T00:03:40.699Z,9.35
2022-08-14T00:06:28.475Z,9.95
2022-08-14T00:08:59.252Z,8.68
2022-08-14T00:11:34.190Z,13.98
2022-08-14T00:14:02.347Z,10.60
2022-08-14T00:16:41.090Z,10.70
2022-08-14T00:19:21.521Z,10.63
2022-08-14T00:21:58.268Z,9.20
2022-08-14T00:24:29.118Z,11.88
2022-08-14T00:27:05.176Z,9.40
2022-08-14T00:29:40.695Z,9.82
2022-08-14T00:32:52.106Z,9.40
2022-08-14T00:35:11.181Z,10.35
2022-08-14T00:37:48.177Z,9.45
2022-08-14T00:40:27.307Z,12.07
2022-08-14T00:43:08.646Z,9.55
2022-08-14T00:45:42.189Z,8.60
2022-08-14T00:48:34.622Z,13.35
2022-08-14T00:51:09.064Z,9.50
2022-08-14T00:53:44.239Z,9.38
2022-08-14T00:56:15.471Z,10.40
2022-08-14T00:58:45.314Z,11.85
2022-08-14T01:01:23.257Z,11.00
2022-08-14T01:03:59.239Z,10.93
2022-08-14T01:06:30.052Z,9.00
2022-08-14T01:08:59.065Z,10.02
2022-08-14T01:11:40.219Z,10.40
2022-08-14T01:14:25.699Z,11.02
2022-08-14T01:17:01.254Z,9.20
2022-08-14T01:19:53.902Z,9.60
2022-08-14T01:22:27.206Z,10.63
2022-08-14T01:24:57.329Z,9.80
2022-08-14T01:27:31.175Z,10.63
2022-08-14T01:30:12.496Z,9.27
2022-08-14T01:32:51.186Z,11.02
2022-08-14T01:36:02.910Z,9.77
2022-08-14T01:38:22.192Z,9.82
2022-08-14T01:40:53.083Z,10.32
2022-08-14T01:43:28.280Z,9.88
2022-08-14T01:46:06.951Z,11.10
2022-08-14T01:48:37.015Z,10.00
2022-08-14T01:51:19.045Z,10.82
2022-08-14T01:53:56.406Z,10.65
2022-08-14T01:56:44.592Z,10.40
2022-08-14T01:59:18.594Z,10.20
2022-08-14T02:01:58.423Z,10.25
2022-08-14T02:04:54.804Z,10.30
2022-08-14T02:07:27.179Z,10.20
2022-08-14T02:10:16.032Z,11.15
2022-08-14T02:12:57.025Z,11.32
2022-08-14T02:15:24.829Z,11.77
2022-08-14T02:17:58.181Z,11.45
2022-08-14T02:20:25.924Z,10.38
2022-08-14T02:22:54.914Z,10.57
2022-08-14T02:25:29.965Z,10.43
2022-08-14T02:28:23.735Z,11.52
2022-08-14T02:30:52.652Z,10.98
2022-08-14T02:33:40.175Z,10.45
2022-08-14T02:37:04.947Z,11.45
2022-08-14T02:39:11.144Z,10.32
2022-08-14T02:41:52.654Z,11.10
2022-08-14T02:44:32.223Z,11.70
2022-08-14T02:47:15.130Z,11.27
2022-08-14T02:49:55.004Z,11.00
2022-08-14T02:52:57.762Z,11.00
2022-08-14T02:55:20.112Z,12.65
2022-08-14T02:58:03.554Z,10.65
2022-08-14T03:00:32.982Z,15.45
2022-08-14T03:03:08.425Z,12.53
2022-08-14T03:05:37.119Z,12.00
2022-08-14T03:08:20.197Z,12.57
2022-08-14T03:10:48.634Z,12.88
2022-08-14T03:13:23.207Z,15.55
2022-08-14T03:15:55.686Z,11.68
2022-08-14T03:18:32.802Z,11.93
2022-08-14T03:21:09.215Z,11.15
2022-08-14T03:23:43.237Z,10.98
2022-08-14T03:26:13.241Z,12.75
2022-08-14T03:28:54.239Z,11.43
2022-08-14T03:31:25.887Z,11.57
2022-08-14T03:34:24.589Z,11.05
2022-08-14T03:37:28.871Z,11.52
2022-08-14T03:39:59.279Z,11.95
2022-08-14T03:42:36.084Z,13.25
2022-08-14T03:45:26.418Z,13.32
2022-08-14T03:48:02.146Z,13.75
2022-08-14T03:50:36.185Z,15.18
2022-08-14T03:53:03.530Z,13.75
2022-08-14T03:55:37.230Z,12.05
2022-08-14T03:58:06.814Z,14.82
2022-08-14T04:00:44.831Z,12.25
2022-08-14T04:03:24.197Z,13.18
2022-08-14T04:05:51.182Z,14.45
2022-08-14T04:08:30.818Z,12.07
2022-08-14T04:11:01.074Z,11.88
2022-08-14T04:13:36.213Z,14.43
2022-08-14T04:16:12.338Z,14.52
2022-08-14T04:18:52.254Z,11.48
2022-08-14T04:21:23.028Z,12.07
2022-08-14T04:24:01.216Z,13.43
2022-08-14T04:26:42.386Z,15.77
2022-08-14T04:29:18.186Z,12.70
2022-08-14T04:33:10.370Z,15.75
2022-08-14T04:34:51.931Z,14.43
2022-08-14T04:37:53.607Z,13.88
2022-08-14T04:40:46.204Z,21.63
2022-08-14T04:43:39.139Z,21.25
2022-08-14T04:46:56.956Z,17.90
2022-08-14T04:49:07.838Z,19.92
2022-08-14T04:51:46.787Z,13.07
2022-08-14T04:54:26.815Z,12.20
2022-08-14T04:57:01.284Z,12.65
2022-08-14T04:59:27.929Z,16.67
2022-08-14T05:01:57.970Z,18.00
2022-08-14T05:04:31.237Z,14.40
2022-08-14T05:07:04.205Z,15.07
2022-08-14T05:09:33.053Z,13.95
2022-08-14T05:13:11.078Z,17.30
2022-08-14T05:14:55.539Z,14.48
2022-08-14T05:17:44.207Z,20.40
2022-08-14T05:21:54.302Z,15.48
2022-08-14T05:23:14.272Z,15.18
2022-08-14T05:25:42.006Z,16.35
2022-08-14T05:28:14.154Z,16.30
2022-08-14T05:30:50.264Z,14.77
2022-08-14T05:33:27.236Z,16.58
2022-08-14T05:36:16.679Z,21.15
2022-08-14T05:38:53.279Z,16.23
2022-08-14T05:41:21.769Z,16.90
2022-08-14T05:43:48.820Z,18.20
2022-08-14T05:46:26.221Z,15.50
2022-08-14T05:48:55.158Z,18.77
2022-08-14T05:51:25.118Z,20.73
2022-08-14T05:54:01.367Z,20.40
2022-08-14T05:56:43.228Z,18.73
2022-08-14T05:59:11.300Z,17.08
2022-08-14T06:01:44.270Z,14.25
2022-08-14T06:04:13.333Z,17.25
2022-08-14T06:06:49.207Z,14.15
2022-08-14T06:09:22.248Z,16.48
2022-08-14T06:11:56.199Z,15.50
2022-08-14T06:14:24.696Z,14.02
2022-08-14T06:17:00.265Z,14.13
2022-08-14T06:19:26.909Z,14.65
2022-08-14T06:21:59.402Z,15.73
2022-08-14T06:24:35.055Z,14.73
2022-08-14T06:27:06.501Z,13.25
2022-08-14T06:29:44.245Z,12.95
2022-08-14T06:32:38.087Z,14.25
2022-08-14T06:35:12.616Z,17.73
2022-08-14T06:37:49.752Z,15.13
2022-08-14T06:40:34.238Z,14.02
2022-08-14T06:43:06.904Z,13.75
2022-08-14T06:45:42.202Z,14.82
2022-08-14T06:48:21.662Z,18.08
2022-08-14T06:50:55.276Z,14.27
2022-08-14T06:53:27.733Z,18.63
2022-08-14T06:56:03.278Z,15.55
2022-08-14T06:58:37.211Z,16.02
2022-08-14T07:01:26.809Z,16.00
2022-08-14T07:06:55.499Z,13.50
2022-08-14T07:09:43.922Z,19.25
2022-08-14T07:12:54.555Z,16.15
2022-08-14T07:15:12.223Z,15.82
2022-08-14T07:17:52.074Z,14.63
2022-08-14T07:20:30.671Z,13.48
2022-08-14T07:23:19.752Z,14.45
2022-08-14T07:25:47.935Z,15.70
2022-08-14T07:28:33.301Z,12.20
2022-08-14T07:31:04.875Z,14.00
2022-08-14T07:33:50.051Z,12.35
2022-08-14T07:36:32.277Z,16.85
2022-08-14T07:39:12.457Z,14.63
2022-08-14T07:41:47.225Z,12.82
2022-08-14T07:44:29.260Z,16.75
2022-08-14T07:47:07.470Z,14.93
2022-08-14T07:49:34.742Z,11.57
2022-08-14T07:52:04.955Z,14.30
2022-08-14T07:54:38.219Z,11.85
2022-08-14T07:57:12.324Z,11.55
2022-08-14T07:59:49.498Z,15.80
2022-08-14T08:02:24.239Z,10.65
2022-08-14T08:05:02.245Z,11.63
2022-08-14T08:07:31.414Z,18.65
2022-08-14T08:10:01.190Z,10.73
2022-08-14T08:12:36.233Z,12.00
2022-08-14T08:15:10.285Z,10.20
2022-08-14T08:17:38.181Z,13.00
2022-08-14T08:20:20.198Z,14.35
2022-08-14T08:22:49.922Z,10.52
2022-08-14T08:25:31.292Z,10.73
2022-08-14T08:28:25.393Z,9.50
2022-08-14T08:31:09.233Z,10.38
2022-08-14T08:33:37.427Z,10.70
2022-08-14T08:36:20.282Z,10.50
2022-08-14T08:39:15.206Z,10.15
2022-08-14T08:41:50.488Z,9.82
2022-08-14T08:44:31.760Z,9.43
2022-08-14T08:49:52.972Z,8.48
2022-08-14T08:52:36.247Z,11.23
2022-08-14T08:55:04.293Z,14.18
2022-08-14T08:57:35.902Z,10.88
2022-08-14T09:00:25.270Z,8.38
2022-08-14T09:02:58.121Z,7.05
2022-08-14T09:05:32.434Z,10.68
2022-08-14T09:08:26.568Z,10.00
2022-08-14T09:11:19.091Z,12.25
2022-08-14T09:16:34.297Z,7.53
2022-08-14T09:19:02.762Z,10.50
2022-08-14T09:21:38.224Z,10.35
2022-08-14T09:24:28.868Z,6.72
2022-08-14T09:27:06.832Z,14.50
2022-08-14T09:29:33.569Z,9.30
2022-08-14T09:32:59.625Z,6.13
2022-08-14T09:36:09.267Z,9.85
2022-08-14T09:39:03.766Z,8.55
2022-08-14T09:42:21.322Z,8.52
2022-08-14T09:45:16.861Z,9.70
2022-08-14T09:47:59.234Z,6.38
2022-08-14T09:50:29.820Z,5.72
2022-08-14T09:53:18.240Z,10.00
2022-08-14T09:55:52.220Z,7.70
2022-08-14T09:58:27.315Z,5.97
2022-08-14T10:01:08.239Z,8.90
2022-08-14T10:03:36.864Z,6.78
2022-08-14T10:06:24.235Z,8.82
2022-08-14T10:09:06.568Z,7.43
2022-08-14T10:11:46.252Z,8.38
2022-08-14T10:14:29.561Z,5.22
2022-08-14T10:17:10.276Z,8.02
2022-08-14T10:19:55.274Z,5.35
2022-08-14T10:23:12.613Z,7.88
2022-08-14T10:25:24.269Z,7.28
2022-08-14T10:27:58.097Z,11.40
2022-08-14T10:30:43.244Z,6.28
2022-08-14T10:33:10.348Z,6.65
2022-08-14T10:35:58.321Z,7.28
2022-08-14T10:38:34.270Z,5.32
2022-08-14T10:41:22.277Z,7.95
2022-08-14T10:44:20.845Z,12.07
2022-08-14T10:47:40.471Z,6.60
2022-08-14T10:50:00.948Z,6.53
2022-08-14T10:52:42.310Z,7.35
2022-08-14T10:55:16.016Z,8.43
2022-08-14T10:58:06.264Z,6.43
2022-08-14T11:00:35.698Z,7.30
2022-08-14T11:06:17.512Z,4.68
2022-08-14T11:08:45.737Z,8.32
2022-08-14T11:11:12.610Z,6.53
2022-08-14T11:13:50.251Z,6.88
2022-08-14T11:16:25.308Z,9.70
2022-08-14T11:19:02.260Z,4.93
2022-08-14T11:21:30.478Z,5.75
2022-08-14T11:24:54.575Z,7.85
2022-08-14T11:26:55.199Z,7.75
2022-08-14T11:29:30.270Z,6.72
2022-08-14T11:32:11.336Z,7.03
2022-08-14T11:35:00.344Z,6.35
2022-08-14T11:37:40.519Z,5.15
2022-08-14T11:40:28.579Z,5.35
2022-08-14T11:42:59.503Z,4.50
2022-08-14T11:45:41.252Z,10.15
2022-08-14T11:48:59.607Z,3.95
2022-08-14T11:51:24.517Z,5.70
2022-08-14T11:54:20.357Z,4.90
2022-08-14T11:57:08.276Z,3.88
2022-08-14T11:59:44.086Z,5.38
2022-08-14T12:02:39.119Z,4.05
2022-08-14T12:05:10.469Z,6.95
2022-08-14T12:07:55.291Z,6.15
2022-08-14T12:10:41.064Z,3.40
2022-08-14T12:13:17.605Z,3.80
2022-08-14T12:15:53.329Z,2.85
2022-08-14T12:18:39.397Z,9.43
2022-08-14T12:21:15.936Z,3.70
2022-08-14T12:23:54.426Z,4.13
2022-08-14T12:26:39.117Z,5.50
2022-08-14T12:29:13.016Z,3.35
2022-08-14T12:31:51.580Z,2.83
2022-08-14T12:34:47.245Z,2.70
2022-08-14T12:37:20.264Z,3.05
2022-08-14T12:39:47.158Z,5.85
2022-08-14T12:42:34.732Z,4.55
2022-08-14T12:45:04.301Z,5.05
2022-08-14T12:47:38.287Z,6.85
2022-08-14T12:50:05.709Z,3.67
2022-08-14T12:53:02.182Z,5.15
2022-08-14T12:56:18.731Z,4.68
2022-08-14T12:58:47.435Z,5.68
2022-08-14T13:01:22.946Z,3.35
2022-08-14T13:03:57.268Z,6.47
2022-08-14T13:06:26.801Z,3.75
2022-08-14T13:09:01.284Z,5.05
2022-08-14T13:11:36.451Z,5.90
2022-08-14T13:14:17.214Z,3.08
2022-08-14T13:16:45.636Z,3.00
2022-08-14T13:19:26.732Z,5.00
2022-08-14T13:22:09.620Z,4.82
2022-08-14T13:24:45.290Z,2.47
2022-08-14T13:27:12.426Z,3.30
2022-08-14T13:29:49.268Z,3.63
2022-08-14T13:32:17.785Z,6.18
2022-08-14T13:34:54.284Z,3.03
2022-08-14T13:37:27.796Z,2.38
2022-08-14T13:40:02.397Z,3.92
2022-08-14T13:42:31.522Z,4.25
2022-08-14T13:45:07.312Z,2.65
2022-08-14T13:47:46.538Z,3.28
2022-08-14T13:53:00.719Z,3.97
2022-08-14T13:55:37.280Z,3.13
2022-08-14T13:58:20.173Z,2.90
2022-08-14T14:00:57.831Z,2.60
2022-08-14T14:03:33.309Z,3.10
2022-08-14T14:06:02.349Z,3.15
2022-08-14T14:08:43.780Z,4.53
2022-08-14T14:11:23.322Z,3.10
2022-08-14T14:14:01.290Z,4.28
2022-08-14T14:16:30.640Z,7.57
2022-08-14T14:19:10.083Z,4.05
2022-08-14T14:21:38.031Z,3.72
2022-08-14T14:24:07.679Z,2.80
2022-08-14T14:26:41.292Z,2.90
2022-08-14T14:29:17.343Z,2.60
2022-08-14T14:31:48.863Z,5.30
2022-08-14T14:34:29.983Z,4.53
2022-08-14T14:37:06.176Z,3.10
2022-08-14T14:40:52.780Z,8.02
2022-08-14T14:42:35.568Z,7.72
2022-08-14T14:45:13.223Z,4.43
2022-08-14T14:48:00.290Z,5.63
2022-08-14T14:50:27.070Z,5.30
2022-08-14T14:53:12.503Z,5.67
2022-08-14T14:56:04.644Z,3.10
2022-08-14T14:58:43.298Z,4.80
2022-08-14T15:01:15.711Z,4.95
2022-08-14T15:03:50.321Z,5.82
2022-08-14T15:06:28.983Z,3.90
2022-08-14T15:08:59.603Z,4.97
2022-08-14T15:11:33.368Z,6.53
2022-08-14T15:14:01.314Z,5.90
2022-08-14T15:16:55.319Z,3.55
2022-08-14T15:19:25.948Z,5.80
2022-08-14T15:21:54.040Z,4.13
2022-08-14T15:24:27.382Z,5.55
2022-08-14T15:27:03.317Z,6.97
2022-08-14T15:29:36.320Z,3.90
2022-08-14T15:32:03.909Z,5.07
2022-08-14T15:34:55.321Z,7.75
2022-08-14T15:37:23.114Z,5.25
2022-08-14T15:39:52.394Z,6.18
2022-08-14T15:42:29.327Z,3.97
2022-08-14T15:45:03.328Z,6.22
2022-08-14T15:47:31.718Z,7.70
2022-08-14T15:50:07.587Z,7.07
2022-08-14T15:52:37.418Z,8.65
2022-08-14T15:55:14.385Z,9.23
2022-08-14T15:58:02.449Z,6.03
2022-08-14T16:00:55.331Z,13.57
2022-08-14T16:03:27.008Z,7.85
2022-08-14T16:06:10.627Z,5.22
2022-08-14T16:08:42.960Z,5.38
2022-08-14T16:11:17.314Z,6.70
2022-08-14T16:13:47.781Z,7.38
2022-08-14T16:16:47.137Z,4.88
2022-08-14T16:19:24.339Z,8.00
2022-08-14T16:22:01.474Z,7.55
2022-08-14T16:27:39.438Z,7.28
2022-08-14T16:30:25.277Z,5.07
2022-08-14T16:32:57.111Z,6.47
2022-08-14T16:40:25.544Z,6.97
2022-08-14T16:41:32.317Z,11.40
2022-08-14T16:44:13.604Z,5.13
2022-08-14T16:46:58.379Z,5.95
2022-08-14T16:50:03.404Z,7.72
2022-08-14T16:52:26.026Z,5.68
2022-08-14T16:55:11.993Z,8.13
2022-08-14T16:58:00.309Z,7.60
2022-08-14T17:00:30.053Z,9.98
2022-08-14T17:03:16.339Z,7.53
2022-08-14T17:05:46.604Z,6.38
2022-08-14T17:08:41.922Z,6.90
2022-08-14T17:11:18.364Z,6.13
2022-08-14T17:14:00.602Z,9.02
2022-08-14T17:16:33.018Z,8.65
2022-08-14T17:19:17.339Z,13.38
2022-08-14T17:21:46.823Z,7.95
2022-08-14T17:24:58.317Z,8.00
2022-08-14T17:27:18.486Z,6.50
2022-08-14T17:29:56.045Z,6.88
2022-08-14T17:32:44.501Z,7.68
2022-08-14T17:38:38.791Z,6.72
2022-08-14T17:41:35.920Z,9.07
2022-08-14T17:44:21.432Z,6.15
2022-08-14T17:46:57.403Z,11.25
2022-08-14T17:49:31.945Z,8.38
2022-08-14T17:52:17.236Z,8.60
2022-08-14T17:54:52.652Z,6.85
2022-08-14T17:57:35.552Z,6.95
2022-08-14T18:00:14.865Z,10.77
2022-08-14T18:02:50.559Z,10.05
2022-08-14T18:05:23.815Z,6.70
2022-08-14T18:08:32.269Z,6.47
2022-08-14T18:11:00.268Z,7.82
2022-08-14T18:13:51.549Z,6.53
2022-08-14T18:16:20.208Z,10.02
2022-08-14T18:18:56.422Z,8.75
2022-08-14T18:21:56.702Z,9.52
2022-08-14T18:24:20.037Z,8.02
2022-08-14T18:27:02.154Z,8.57
2022-08-14T18:29:37.338Z,7.43
2022-08-14T18:32:27.674Z,6.95
2022-08-14T18:35:16.341Z,8.15
2022-08-14T18:37:56.144Z,16.20
2022-08-14T18:40:38.086Z,12.15
2022-08-14T18:45:34.265Z,9.00
2022-08-14T18:48:33.312Z,12.57
2022-08-14T18:51:11.788Z,15.65
2022-08-14T18:54:33.302Z,14.73
2022-08-14T18:57:10.414Z,12.30
2022-08-14T18:59:42.319Z,20.27
2022-08-14T19:02:34.324Z,25.48
2022-08-14T19:05:09.429Z,21.48
2022-08-14T19:07:42.343Z,17.48
2022-08-14T19:10:17.383Z,16.20
2022-08-14T19:12:53.263Z,13.32
2022-08-14T19:15:28.346Z,17.17
2022-08-14T19:18:14.227Z,9.75
2022-08-14T19:20:53.450Z,11.85
2022-08-14T19:23:42.240Z,15.07
2022-08-14T19:26:36.932Z,14.13
2022-08-14T19:29:51.403Z,15.90
2022-08-14T19:32:39.605Z,21.48
2022-08-14T19:35:41.703Z,22.33
2022-08-14T19:38:59.420Z,8.88
2022-08-14T19:41:36.345Z,12.52
2022-08-14T19:44:31.945Z,12.50
2022-08-14T19:47:04.826Z,18.48
2022-08-14T19:50:08.709Z,10.27
2022-08-14T19:52:40.005Z,8.18
2022-08-14T19:55:34.561Z,9.75
2022-08-14T19:58:02.576Z,11.68
2022-08-14T20:00:52.878Z,9.60
2022-08-14T20:06:09.353Z,10.23
2022-08-14T20:10:58.536Z,13.93
2022-08-14T20:12:01.686Z,8.32
2022-08-14T20:14:36.061Z,8.75
2022-08-14T20:17:11.386Z,10.40
2022-08-14T20:19:41.844Z,9.20
2022-08-14T20:22:37.329Z,10.20
2022-08-14T20:25:25.441Z,8.70
2022-08-14T20:27:59.873Z,9.50
2022-08-14T20:30:32.987Z,8.60
2022-08-14T20:33:13.369Z,13.57
2022-08-14T20:36:01.369Z,12.30
2022-08-14T20:38:41.367Z,10.32
2022-08-14T20:41:33.388Z,15.93
2022-08-14T20:44:39.498Z,12.57
2022-08-14T20:47:06.706Z,11.60
2022-08-14T20:49:43.376Z,11.85
2022-08-14T20:52:19.915Z,9.63
2022-08-14T20:54:50.650Z,10.70
2022-08-14T20:57:24.370Z,11.75
2022-08-14T21:00:11.881Z,14.05
2022-08-14T21:02:50.894Z,10.77
2022-08-14T21:05:33.943Z,9.95
2022-08-14T21:08:08.128Z,12.23
2022-08-14T21:10:44.222Z,11.35
2022-08-14T21:14:19.072Z,10.05
2022-08-14T21:16:34.577Z,11.48
2022-08-14T21:19:02.101Z,12.82
2022-08-14T21:21:41.840Z,12.07
2022-08-14T21:24:10.471Z,15.20
2022-08-14T21:27:12.934Z,12.25
2022-08-14T21:29:55.543Z,12.05
2022-08-14T21:32:50.299Z,12.95
2022-08-14T21:35:31.385Z,13.27
2022-08-14T21:38:18.650Z,12.75
2022-08-14T21:40:56.430Z,11.30
2022-08-14T21:43:30.068Z,11.20
2022-08-14T21:46:03.381Z,14.75
2022-08-14T21:48:32.533Z,10.88
2022-08-14T21:51:54.665Z,10.07
2022-08-14T21:54:00.214Z,10.25
2022-08-14T21:56:38.381Z,11.35
2022-08-14T21:59:09.559Z,12.60
2022-08-14T22:02:01.219Z,13.27
2022-08-14T22:04:41.591Z,12.43
2022-08-14T22:07:12.100Z,13.30
2022-08-14T22:09:54.658Z,13.82
2022-08-14T22:12:58.582Z,10.77
2022-08-14T22:15:19.421Z,12.10
2022-08-14T22:17:55.555Z,11.90
2022-08-14T22:20:24.392Z,11.23
2022-08-14T22:22:55.947Z,11.80
2022-08-14T22:25:33.408Z,13.43
2022-08-14T22:28:12.120Z,12.18
2022-08-14T22:30:46.375Z,12.55
2022-08-14T22:33:13.955Z,11.65
2022-08-14T22:35:57.452Z,12.40
2022-08-14T22:38:37.091Z,12.05
2022-08-14T22:41:26.737Z,11.85
2022-08-14T22:44:06.627Z,12.80
2022-08-14T22:46:34.008Z,12.85
2022-08-14T22:49:01.051Z,12.02
2022-08-14T22:51:50.436Z,16.38
2022-08-14T22:54:52.874Z,13.43
2022-08-14T22:57:12.405Z,13.20
2022-08-14T22:59:45.396Z,11.73
2022-08-14T23:02:35.553Z,13.15
2022-08-14T23:05:12.409Z,12.27
2022-08-14T23:09:00.189Z,13.40
2022-08-14T23:10:35.122Z,13.10
2022-08-14T23:13:10.390Z,16.50
2022-08-14T23:15:43.381Z,13.07
2022-08-14T23:18:17.468Z,12.95
2022-08-14T23:20:48.996Z,12.68
2022-08-14T23:23:24.405Z,12.88
2022-08-14T23:26:46.775Z,13.88
2022-08-14T23:28:58.314Z,11.88
2022-08-14T23:34:08.142Z,12.15
2022-08-14T23:36:53.943Z,15.50
2022-08-14T23:39:32.453Z,16.70
2022-08-14T23:42:10.434Z,12.93
2022-08-14T23:44:38.852Z,14.25
2022-08-14T23:47:10.773Z,12.88
2022-08-14T23:49:59.928Z,16.02
2022-08-14T23:52:50.942Z,15.23
2022-08-14T23:55:22.415Z,16.60
2022-08-14T23:57:58.656Z,13.95
